sensor_id;sensor_type;location;lat;lon;timestamp;P1;durP1;ratioP1;P2;durP2;ratioP2
23270;SDS011;11804;51.118;17.058;2022-12-15T00:01:56;113.67;;;58.07;;
23270;SDS011;11804;51.118;17.058;2022-12-15T00:04:41;121.20;;;58.80;;
23270;SDS011;11804;51.118;17.058;2022-12-15T00:07:27;127.57;;;59.00;;
23270;SDS011;11804;51.118;17.058;2022-12-15T00:10:12;109.87;;;54.87;;
23270;SDS011;11804;51.118;17.058;2022-12-15T00:12:57;109.93;;;53.67;;
23270;SDS011;11804;51.118;17.058;2022-12-15T00:15:44;106.87;;;52.53;;
23270;SDS011;11804;51.118;17.058;2022-12-15T00:18:30;109.50;;;54.67;;
23270;SDS011;11804;51.118;17.058;2022-12-15T00:21:15;116.10;;;57.37;;
23270;SDS011;11804;51.118;17.058;2022-12-15T00:24:01;123.47;;;59.10;;
23270;SDS011;11804;51.118;17.058;2022-12-15T00:26:46;130.97;;;59.20;;
23270;SDS011;11804;51.118;17.058;2022-12-15T00:29:31;128.07;;;60.07;;
23270;SDS011;11804;51.118;17.058;2022-12-15T00:32:16;132.80;;;62.17;;
23270;SDS011;11804;51.118;17.058;2022-12-15T00:35:02;126.70;;;61.57;;
23270;SDS011;11804;51.118;17.058;2022-12-15T00:37:47;138.23;;;62.70;;
23270;SDS011;11804;51.118;17.058;2022-12-15T00:40:33;126.40;;;61.20;;
23270;SDS011;11804;51.118;17.058;2022-12-15T00:43:03;134.73;;;62.30;;
23270;SDS011;11804;51.118;17.058;2022-12-15T00:45:31;135.77;;;65.53;;
23270;SDS011;11804;51.118;17.058;2022-12-15T00:48:16;134.23;;;64.00;;
23270;SDS011;11804;51.118;17.058;2022-12-15T00:50:46;142.27;;;65.10;;
23270;SDS011;11804;51.118;17.058;2022-12-15T00:53:22;147.80;;;67.13;;
23270;SDS011;11804;51.118;17.058;2022-12-15T00:56:09;150.83;;;67.53;;
23270;SDS011;11804;51.118;17.058;2022-12-15T00:58:54;145.60;;;67.23;;
23270;SDS011;11804;51.118;17.058;2022-12-15T01:01:40;143.10;;;66.27;;
23270;SDS011;11804;51.118;17.058;2022-12-15T01:04:26;139.93;;;64.50;;
23270;SDS011;11804;51.118;17.058;2022-12-15T01:07:11;149.80;;;67.67;;
23270;SDS011;11804;51.118;17.058;2022-12-15T01:09:56;152.67;;;66.83;;
23270;SDS011;11804;51.118;17.058;2022-12-15T01:12:41;145.70;;;66.20;;
23270;SDS011;11804;51.118;17.058;2022-12-15T01:15:27;142.13;;;63.73;;
23270;SDS011;11804;51.118;17.058;2022-12-15T01:18:12;152.43;;;64.97;;
23270;SDS011;11804;51.118;17.058;2022-12-15T01:20:58;141.27;;;63.77;;
23270;SDS011;11804;51.118;17.058;2022-12-15T01:23:36;147.83;;;66.47;;
23270;SDS011;11804;51.118;17.058;2022-12-15T01:26:04;147.23;;;65.43;;
23270;SDS011;11804;51.118;17.058;2022-12-15T01:28:33;141.63;;;66.33;;
23270;SDS011;11804;51.118;17.058;2022-12-15T01:31:00;146.67;;;66.43;;
23270;SDS011;11804;51.118;17.058;2022-12-15T01:33:30;136.90;;;64.50;;
23270;SDS011;11804;51.118;17.058;2022-12-15T01:35:57;139.83;;;63.47;;
23270;SDS011;11804;51.118;17.058;2022-12-15T01:38:26;140.17;;;66.00;;
23270;SDS011;11804;51.118;17.058;2022-12-15T01:41:01;146.37;;;65.63;;
23270;SDS011;11804;51.118;17.058;2022-12-15T01:43:27;148.43;;;68.53;;
23270;SDS011;11804;51.118;17.058;2022-12-15T01:48:40;158.83;;;70.93;;
23270;SDS011;11804;51.118;17.058;2022-12-15T01:53:54;141.53;;;67.73;;
23270;SDS011;11804;51.118;17.058;2022-12-15T01:56:23;140.63;;;64.37;;
23270;SDS011;11804;51.118;17.058;2022-12-15T01:58:53;135.47;;;63.00;;
23270;SDS011;11804;51.118;17.058;2022-12-15T02:01:22;136.77;;;65.83;;
23270;SDS011;11804;51.118;17.058;2022-12-15T02:03:50;132.37;;;61.77;;
23270;SDS011;11804;51.118;17.058;2022-12-15T02:06:18;132.27;;;61.47;;
23270;SDS011;11804;51.118;17.058;2022-12-15T02:08:48;131.07;;;61.10;;
23270;SDS011;11804;51.118;17.058;2022-12-15T02:11:22;133.87;;;62.33;;
23270;SDS011;11804;51.118;17.058;2022-12-15T02:14:01;133.03;;;63.07;;
23270;SDS011;11804;51.118;17.058;2022-12-15T02:22:17;120.27;;;58.17;;
23270;SDS011;11804;51.118;17.058;2022-12-15T02:25:02;136.43;;;61.43;;
23270;SDS011;11804;51.118;17.058;2022-12-15T02:27:47;125.30;;;60.10;;
23270;SDS011;11804;51.118;17.058;2022-12-15T02:33:16;156.57;;;67.77;;
23270;SDS011;11804;51.118;17.058;2022-12-15T02:38:15;156.43;;;66.60;;
23270;SDS011;11804;51.118;17.058;2022-12-15T02:40:58;136.43;;;62.63;;
23270;SDS011;11804;51.118;17.058;2022-12-15T02:43:27;149.77;;;62.37;;
23270;SDS011;11804;51.118;17.058;2022-12-15T02:46:21;131.83;;;59.87;;
23270;SDS011;11804;51.118;17.058;2022-12-15T02:48:54;120.27;;;55.30;;
23270;SDS011;11804;51.118;17.058;2022-12-15T02:59:44;107.47;;;51.80;;
23270;SDS011;11804;51.118;17.058;2022-12-15T03:02:18;115.30;;;54.13;;
23270;SDS011;11804;51.118;17.058;2022-12-15T03:04:46;106.83;;;51.07;;
23270;SDS011;11804;51.118;17.058;2022-12-15T03:07:13;119.53;;;53.30;;
23270;SDS011;11804;51.118;17.058;2022-12-15T03:09:41;110.27;;;53.57;;
23270;SDS011;11804;51.118;17.058;2022-12-15T03:12:09;111.17;;;50.60;;
23270;SDS011;11804;51.118;17.058;2022-12-15T03:14:36;100.20;;;48.17;;
23270;SDS011;11804;51.118;17.058;2022-12-15T03:17:04;104.57;;;48.43;;
23270;SDS011;11804;51.118;17.058;2022-12-15T03:19:32;93.50;;;48.33;;
23270;SDS011;11804;51.118;17.058;2022-12-15T03:22:00;98.57;;;48.93;;
23270;SDS011;11804;51.118;17.058;2022-12-15T03:24:28;95.77;;;47.37;;
23270;SDS011;11804;51.118;17.058;2022-12-15T03:26:56;103.77;;;48.20;;
23270;SDS011;11804;51.118;17.058;2022-12-15T03:29:24;102.83;;;47.93;;
23270;SDS011;11804;51.118;17.058;2022-12-15T03:31:51;94.67;;;45.70;;
23270;SDS011;11804;51.118;17.058;2022-12-15T03:34:19;94.57;;;45.67;;
23270;SDS011;11804;51.118;17.058;2022-12-15T03:36:47;91.97;;;46.63;;
23270;SDS011;11804;51.118;17.058;2022-12-15T03:39:14;89.70;;;45.17;;
23270;SDS011;11804;51.118;17.058;2022-12-15T03:41:42;87.70;;;43.07;;
23270;SDS011;11804;51.118;17.058;2022-12-15T03:44:09;89.60;;;43.33;;
23270;SDS011;11804;51.118;17.058;2022-12-15T03:46:37;90.27;;;44.47;;
23270;SDS011;11804;51.118;17.058;2022-12-15T03:49:04;89.13;;;43.97;;
23270;SDS011;11804;51.118;17.058;2022-12-15T03:51:32;80.33;;;41.23;;
23270;SDS011;11804;51.118;17.058;2022-12-15T03:53:59;90.87;;;43.33;;
23270;SDS011;11804;51.118;17.058;2022-12-15T03:56:27;94.10;;;45.60;;
23270;SDS011;11804;51.118;17.058;2022-12-15T03:58:55;91.17;;;44.97;;
23270;SDS011;11804;51.118;17.058;2022-12-15T04:01:25;89.17;;;43.47;;
23270;SDS011;11804;51.118;17.058;2022-12-15T04:03:55;80.63;;;41.83;;
23270;SDS011;11804;51.118;17.058;2022-12-15T04:06:24;84.73;;;42.73;;
23270;SDS011;11804;51.118;17.058;2022-12-15T04:08:52;86.73;;;41.53;;
23270;SDS011;11804;51.118;17.058;2022-12-15T04:11:19;87.70;;;43.47;;
23270;SDS011;11804;51.118;17.058;2022-12-15T04:13:47;84.93;;;41.63;;
23270;SDS011;11804;51.118;17.058;2022-12-15T04:16:14;85.50;;;42.10;;
23270;SDS011;11804;51.118;17.058;2022-12-15T04:18:42;76.97;;;39.67;;
23270;SDS011;11804;51.118;17.058;2022-12-15T04:21:10;74.83;;;38.93;;
23270;SDS011;11804;51.118;17.058;2022-12-15T04:23:37;80.00;;;40.17;;
23270;SDS011;11804;51.118;17.058;2022-12-15T04:26:06;80.10;;;40.70;;
23270;SDS011;11804;51.118;17.058;2022-12-15T04:28:52;84.37;;;42.03;;
23270;SDS011;11804;51.118;17.058;2022-12-15T04:31:37;79.67;;;40.47;;
23270;SDS011;11804;51.118;17.058;2022-12-15T04:34:22;76.77;;;39.73;;
23270;SDS011;11804;51.118;17.058;2022-12-15T04:37:09;74.13;;;37.97;;
23270;SDS011;11804;51.118;17.058;2022-12-15T04:39:56;75.73;;;38.53;;
23270;SDS011;11804;51.118;17.058;2022-12-15T04:42:44;68.67;;;36.03;;
23270;SDS011;11804;51.118;17.058;2022-12-15T04:45:31;69.33;;;36.53;;
23270;SDS011;11804;51.118;17.058;2022-12-15T04:48:16;72.40;;;36.83;;
23270;SDS011;11804;51.118;17.058;2022-12-15T04:51:01;69.67;;;35.00;;
23270;SDS011;11804;51.118;17.058;2022-12-15T04:53:46;61.13;;;32.17;;
23270;SDS011;11804;51.118;17.058;2022-12-15T04:56:31;61.53;;;31.40;;
23270;SDS011;11804;51.118;17.058;2022-12-15T04:59:16;63.30;;;29.80;;
23270;SDS011;11804;51.118;17.058;2022-12-15T05:02:02;58.23;;;29.60;;
23270;SDS011;11804;51.118;17.058;2022-12-15T05:04:47;58.40;;;29.80;;
23270;SDS011;11804;51.118;17.058;2022-12-15T05:07:32;55.47;;;29.17;;
23270;SDS011;11804;51.118;17.058;2022-12-15T05:10:18;51.43;;;26.60;;
23270;SDS011;11804;51.118;17.058;2022-12-15T05:13:04;50.13;;;25.57;;
23270;SDS011;11804;51.118;17.058;2022-12-15T05:15:49;50.33;;;26.90;;
23270;SDS011;11804;51.118;17.058;2022-12-15T05:18:34;52.20;;;27.07;;
23270;SDS011;11804;51.118;17.058;2022-12-15T05:21:20;59.37;;;29.63;;
23270;SDS011;11804;51.118;17.058;2022-12-15T05:24:05;57.07;;;30.60;;
23270;SDS011;11804;51.118;17.058;2022-12-15T05:26:50;59.23;;;30.27;;
23270;SDS011;11804;51.118;17.058;2022-12-15T05:29:35;60.17;;;30.70;;
23270;SDS011;11804;51.118;17.058;2022-12-15T05:32:21;62.03;;;30.63;;
23270;SDS011;11804;51.118;17.058;2022-12-15T05:34:48;62.53;;;31.67;;
23270;SDS011;11804;51.118;17.058;2022-12-15T05:37:16;58.90;;;31.13;;
23270;SDS011;11804;51.118;17.058;2022-12-15T05:39:45;62.90;;;31.93;;
23270;SDS011;11804;51.118;17.058;2022-12-15T05:42:13;57.97;;;30.30;;
23270;SDS011;11804;51.118;17.058;2022-12-15T05:44:40;62.43;;;32.20;;
23270;SDS011;11804;51.118;17.058;2022-12-15T05:47:08;64.07;;;33.10;;
23270;SDS011;11804;51.118;17.058;2022-12-15T05:49:37;61.67;;;33.33;;
23270;SDS011;11804;51.118;17.058;2022-12-15T05:52:04;63.50;;;33.83;;
23270;SDS011;11804;51.118;17.058;2022-12-15T05:54:34;70.23;;;33.77;;
23270;SDS011;11804;51.118;17.058;2022-12-15T05:57:01;68.37;;;33.13;;
23270;SDS011;11804;51.118;17.058;2022-12-15T05:59:29;59.37;;;31.33;;
23270;SDS011;11804;51.118;17.058;2022-12-15T06:01:56;61.37;;;31.67;;
23270;SDS011;11804;51.118;17.058;2022-12-15T06:04:24;58.17;;;30.90;;
23270;SDS011;11804;51.118;17.058;2022-12-15T06:06:52;62.73;;;32.77;;
23270;SDS011;11804;51.118;17.058;2022-12-15T06:09:19;61.53;;;32.73;;
23270;SDS011;11804;51.118;17.058;2022-12-15T06:11:47;59.60;;;32.50;;
23270;SDS011;11804;51.118;17.058;2022-12-15T06:14:14;59.30;;;31.83;;
23270;SDS011;11804;51.118;17.058;2022-12-15T06:16:42;57.80;;;30.60;;
23270;SDS011;11804;51.118;17.058;2022-12-15T06:19:09;56.23;;;30.20;;
23270;SDS011;11804;51.118;17.058;2022-12-15T06:21:37;54.40;;;29.43;;
23270;SDS011;11804;51.118;17.058;2022-12-15T06:24:05;58.10;;;29.07;;
23270;SDS011;11804;51.118;17.058;2022-12-15T06:26:34;60.43;;;30.80;;
23270;SDS011;11804;51.118;17.058;2022-12-15T06:29:05;55.70;;;28.83;;
23270;SDS011;11804;51.118;17.058;2022-12-15T06:31:35;55.47;;;30.53;;
23270;SDS011;11804;51.118;17.058;2022-12-15T06:34:04;63.03;;;30.60;;
23270;SDS011;11804;51.118;17.058;2022-12-15T06:36:34;55.43;;;28.83;;
23270;SDS011;11804;51.118;17.058;2022-12-15T06:39:02;54.70;;;29.43;;
23270;SDS011;11804;51.118;17.058;2022-12-15T06:41:31;58.60;;;29.87;;
23270;SDS011;11804;51.118;17.058;2022-12-15T06:44:00;55.27;;;29.17;;
23270;SDS011;11804;51.118;17.058;2022-12-15T06:46:28;62.30;;;31.50;;
23270;SDS011;11804;51.118;17.058;2022-12-15T06:48:57;61.03;;;31.57;;
23270;SDS011;11804;51.118;17.058;2022-12-15T06:51:25;60.27;;;31.13;;
23270;SDS011;11804;51.118;17.058;2022-12-15T06:53:53;56.10;;;31.70;;
23270;SDS011;11804;51.118;17.058;2022-12-15T06:56:29;68.87;;;35.57;;
23270;SDS011;11804;51.118;17.058;2022-12-15T06:58:54;53.87;;;29.40;;
23270;SDS011;11804;51.118;17.058;2022-12-15T07:01:23;57.97;;;30.53;;
23270;SDS011;11804;51.118;17.058;2022-12-15T07:03:51;92.47;;;55.10;;
23270;SDS011;11804;51.118;17.058;2022-12-15T07:06:19;48.60;;;27.43;;
23270;SDS011;11804;51.118;17.058;2022-12-15T07:08:47;53.63;;;27.53;;
23270;SDS011;11804;51.118;17.058;2022-12-15T07:11:17;50.77;;;26.10;;
23270;SDS011;11804;51.118;17.058;2022-12-15T07:13:48;51.60;;;27.70;;
23270;SDS011;11804;51.118;17.058;2022-12-15T07:16:18;51.13;;;26.70;;
23270;SDS011;11804;51.118;17.058;2022-12-15T07:18:47;50.70;;;27.03;;
23270;SDS011;11804;51.118;17.058;2022-12-15T07:21:14;47.77;;;26.03;;
23270;SDS011;11804;51.118;17.058;2022-12-15T07:23:42;48.83;;;27.07;;
23270;SDS011;11804;51.118;17.058;2022-12-15T07:26:10;51.80;;;26.67;;
23270;SDS011;11804;51.118;17.058;2022-12-15T07:28:38;48.50;;;26.17;;
23270;SDS011;11804;51.118;17.058;2022-12-15T07:31:07;53.27;;;26.97;;
23270;SDS011;11804;51.118;17.058;2022-12-15T07:33:37;49.53;;;26.47;;
23270;SDS011;11804;51.118;17.058;2022-12-15T07:36:05;45.77;;;25.17;;
23270;SDS011;11804;51.118;17.058;2022-12-15T07:38:33;49.27;;;27.20;;
23270;SDS011;11804;51.118;17.058;2022-12-15T07:41:02;47.23;;;25.33;;
23270;SDS011;11804;51.118;17.058;2022-12-15T07:43:31;51.97;;;28.37;;
23270;SDS011;11804;51.118;17.058;2022-12-15T07:45:59;46.43;;;26.00;;
23270;SDS011;11804;51.118;17.058;2022-12-15T07:48:26;49.30;;;27.03;;
23270;SDS011;11804;51.118;17.058;2022-12-15T07:50:54;48.30;;;25.83;;
23270;SDS011;11804;51.118;17.058;2022-12-15T07:53:23;46.60;;;24.70;;
23270;SDS011;11804;51.118;17.058;2022-12-15T07:55:55;45.10;;;23.63;;
23270;SDS011;11804;51.118;17.058;2022-12-15T07:58:25;38.70;;;22.33;;
23270;SDS011;11804;51.118;17.058;2022-12-15T08:01:01;45.27;;;24.43;;
23270;SDS011;11804;51.118;17.058;2022-12-15T08:03:30;42.93;;;23.10;;
23270;SDS011;11804;51.118;17.058;2022-12-15T08:06:01;43.57;;;22.73;;
23270;SDS011;11804;51.118;17.058;2022-12-15T08:08:31;42.37;;;22.83;;
23270;SDS011;11804;51.118;17.058;2022-12-15T08:11:02;40.00;;;20.90;;
23270;SDS011;11804;51.118;17.058;2022-12-15T08:13:37;41.23;;;21.20;;
23270;SDS011;11804;51.118;17.058;2022-12-15T08:16:01;36.87;;;20.83;;
23270;SDS011;11804;51.118;17.058;2022-12-15T08:18:29;39.07;;;20.77;;
23270;SDS011;11804;51.118;17.058;2022-12-15T08:21:03;40.00;;;20.67;;
23270;SDS011;11804;51.118;17.058;2022-12-15T08:23:33;58.30;;;29.87;;
23270;SDS011;11804;51.118;17.058;2022-12-15T08:26:06;70.73;;;37.87;;
23270;SDS011;11804;51.118;17.058;2022-12-15T08:28:35;57.83;;;32.33;;
23270;SDS011;11804;51.118;17.058;2022-12-15T08:31:11;47.03;;;25.53;;
23270;SDS011;11804;51.118;17.058;2022-12-15T08:33:43;44.90;;;23.93;;
23270;SDS011;11804;51.118;17.058;2022-12-15T08:36:12;43.87;;;23.70;;
23270;SDS011;11804;51.118;17.058;2022-12-15T08:38:41;45.00;;;24.30;;
23270;SDS011;11804;51.118;17.058;2022-12-15T08:41:14;41.70;;;22.30;;
23270;SDS011;11804;51.118;17.058;2022-12-15T08:43:45;40.00;;;22.07;;
23270;SDS011;11804;51.118;17.058;2022-12-15T08:46:13;41.93;;;21.27;;
23270;SDS011;11804;51.118;17.058;2022-12-15T08:48:45;43.27;;;21.97;;
23270;SDS011;11804;51.118;17.058;2022-12-15T08:51:13;38.20;;;21.13;;
23270;SDS011;11804;51.118;17.058;2022-12-15T08:53:41;40.43;;;22.50;;
23270;SDS011;11804;51.118;17.058;2022-12-15T08:56:10;50.40;;;25.70;;
23270;SDS011;11804;51.118;17.058;2022-12-15T08:58:40;72.17;;;32.83;;
23270;SDS011;11804;51.118;17.058;2022-12-15T09:01:12;42.87;;;23.87;;
23270;SDS011;11804;51.118;17.058;2022-12-15T09:03:42;44.83;;;23.93;;
23270;SDS011;11804;51.118;17.058;2022-12-15T09:06:25;40.83;;;21.90;;
23270;SDS011;11804;51.118;17.058;2022-12-15T09:08:52;40.50;;;22.67;;
23270;SDS011;11804;51.118;17.058;2022-12-15T09:11:23;42.43;;;24.17;;
23270;SDS011;11804;51.118;17.058;2022-12-15T09:13:51;40.33;;;21.33;;
23270;SDS011;11804;51.118;17.058;2022-12-15T09:16:19;38.63;;;21.10;;
23270;SDS011;11804;51.118;17.058;2022-12-15T09:18:53;38.77;;;21.50;;
23270;SDS011;11804;51.118;17.058;2022-12-15T09:21:18;40.50;;;21.63;;
23270;SDS011;11804;51.118;17.058;2022-12-15T09:23:51;36.43;;;20.63;;
23270;SDS011;11804;51.118;17.058;2022-12-15T09:26:21;34.83;;;19.40;;
23270;SDS011;11804;51.118;17.058;2022-12-15T09:28:49;41.57;;;22.07;;
23270;SDS011;11804;51.118;17.058;2022-12-15T09:31:17;40.60;;;22.57;;
23270;SDS011;11804;51.118;17.058;2022-12-15T09:33:47;33.70;;;19.63;;
23270;SDS011;11804;51.118;17.058;2022-12-15T09:36:16;36.50;;;20.47;;
23270;SDS011;11804;51.118;17.058;2022-12-15T09:38:44;41.87;;;21.67;;
23270;SDS011;11804;51.118;17.058;2022-12-15T09:46:24;33.47;;;19.27;;
23270;SDS011;11804;51.118;17.058;2022-12-15T09:49:15;32.97;;;19.20;;
23270;SDS011;11804;51.118;17.058;2022-12-15T09:52:03;38.00;;;21.43;;
23270;SDS011;11804;51.118;17.058;2022-12-15T09:54:32;35.13;;;20.37;;
23270;SDS011;11804;51.118;17.058;2022-12-15T09:57:02;34.67;;;18.50;;
23270;SDS011;11804;51.118;17.058;2022-12-15T09:59:55;32.50;;;18.13;;
23270;SDS011;11804;51.118;17.058;2022-12-15T10:05:39;33.50;;;17.73;;
23270;SDS011;11804;51.118;17.058;2022-12-15T10:08:07;30.63;;;17.77;;
23270;SDS011;11804;51.118;17.058;2022-12-15T10:16:19;30.90;;;17.57;;
23270;SDS011;11804;51.118;17.058;2022-12-15T10:21:36;33.80;;;18.40;;
23270;SDS011;11804;51.118;17.058;2022-12-15T10:24:08;28.70;;;16.60;;
23270;SDS011;11804;51.118;17.058;2022-12-15T10:26:37;31.23;;;16.47;;
23270;SDS011;11804;51.118;17.058;2022-12-15T10:31:53;26.57;;;16.17;;
23270;SDS011;11804;51.118;17.058;2022-12-15T10:34:32;32.13;;;20.73;;
23270;SDS011;11804;51.118;17.058;2022-12-15T10:37:03;29.60;;;17.37;;
23270;SDS011;11804;51.118;17.058;2022-12-15T10:39:35;34.50;;;20.00;;
23270;SDS011;11804;51.118;17.058;2022-12-15T10:42:18;33.50;;;19.00;;
23270;SDS011;11804;51.118;17.058;2022-12-15T10:44:48;27.93;;;16.63;;
23270;SDS011;11804;51.118;17.058;2022-12-15T10:47:20;30.37;;;17.10;;
23270;SDS011;11804;51.118;17.058;2022-12-15T10:49:50;35.20;;;18.20;;
23270;SDS011;11804;51.118;17.058;2022-12-15T10:52:21;31.00;;;17.53;;
23270;SDS011;11804;51.118;17.058;2022-12-15T10:54:53;30.83;;;17.43;;
23270;SDS011;11804;51.118;17.058;2022-12-15T10:57:27;29.17;;;17.07;;
23270;SDS011;11804;51.118;17.058;2022-12-15T11:00:23;33.00;;;16.60;;
23270;SDS011;11804;51.118;17.058;2022-12-15T11:02:36;29.00;;;16.43;;
23270;SDS011;11804;51.118;17.058;2022-12-15T11:07:50;29.97;;;17.13;;
23270;SDS011;11804;51.118;17.058;2022-12-15T11:10:32;35.43;;;17.33;;
23270;SDS011;11804;51.118;17.058;2022-12-15T11:13:18;32.57;;;18.07;;
23270;SDS011;11804;51.118;17.058;2022-12-15T11:15:47;32.17;;;17.87;;
23270;SDS011;11804;51.118;17.058;2022-12-15T11:18:30;30.33;;;17.23;;
23270;SDS011;11804;51.118;17.058;2022-12-15T11:26:36;37.63;;;18.83;;
23270;SDS011;11804;51.118;17.058;2022-12-15T11:31:55;28.90;;;16.10;;
23270;SDS011;11804;51.118;17.058;2022-12-15T11:34:32;28.77;;;16.60;;
23270;SDS011;11804;51.118;17.058;2022-12-15T11:37:00;33.20;;;17.10;;
23270;SDS011;11804;51.118;17.058;2022-12-15T11:45:01;29.83;;;17.50;;
23270;SDS011;11804;51.118;17.058;2022-12-15T11:47:42;30.37;;;17.50;;
23270;SDS011;11804;51.118;17.058;2022-12-15T11:53:08;28.87;;;16.40;;
23270;SDS011;11804;51.118;17.058;2022-12-15T11:55:49;34.17;;;19.10;;
23270;SDS011;11804;51.118;17.058;2022-12-15T12:01:15;32.67;;;17.40;;
23270;SDS011;11804;51.118;17.058;2022-12-15T12:04:12;33.57;;;18.30;;
23270;SDS011;11804;51.118;17.058;2022-12-15T12:06:50;34.83;;;18.87;;
23270;SDS011;11804;51.118;17.058;2022-12-15T12:09:36;34.43;;;18.13;;
23270;SDS011;11804;51.118;17.058;2022-12-15T12:12:33;34.47;;;17.97;;
23270;SDS011;11804;51.118;17.058;2022-12-15T12:15:15;37.17;;;19.43;;
23270;SDS011;11804;51.118;17.058;2022-12-15T12:17:51;34.70;;;18.97;;
23270;SDS011;11804;51.118;17.058;2022-12-15T12:20:24;35.83;;;19.20;;
23270;SDS011;11804;51.118;17.058;2022-12-15T12:23:02;35.27;;;19.23;;
23270;SDS011;11804;51.118;17.058;2022-12-15T12:25:37;37.87;;;19.17;;
23270;SDS011;11804;51.118;17.058;2022-12-15T12:28:06;40.10;;;20.10;;
23270;SDS011;11804;51.118;17.058;2022-12-15T12:30:47;39.10;;;20.10;;
23270;SDS011;11804;51.118;17.058;2022-12-15T12:33:21;37.50;;;19.77;;
23270;SDS011;11804;51.118;17.058;2022-12-15T12:36:11;35.53;;;18.37;;
23270;SDS011;11804;51.118;17.058;2022-12-15T12:38:52;30.93;;;17.23;;
23270;SDS011;11804;51.118;17.058;2022-12-15T12:41:22;34.60;;;19.30;;
23270;SDS011;11804;51.118;17.058;2022-12-15T12:43:53;31.77;;;17.70;;
23270;SDS011;11804;51.118;17.058;2022-12-15T12:46:35;34.37;;;19.10;;
23270;SDS011;11804;51.118;17.058;2022-12-15T12:49:05;34.13;;;18.23;;
23270;SDS011;11804;51.118;17.058;2022-12-15T12:51:40;32.43;;;18.40;;
23270;SDS011;11804;51.118;17.058;2022-12-15T12:54:55;31.20;;;17.37;;
23270;SDS011;11804;51.118;17.058;2022-12-15T12:56:57;35.47;;;19.47;;
23270;SDS011;11804;51.118;17.058;2022-12-15T13:05:02;35.43;;;19.17;;
23270;SDS011;11804;51.118;17.058;2022-12-15T13:07:32;36.83;;;19.67;;
23270;SDS011;11804;51.118;17.058;2022-12-15T13:12:45;36.03;;;20.40;;
23270;SDS011;11804;51.118;17.058;2022-12-15T13:17:58;37.10;;;19.97;;
23270;SDS011;11804;51.118;17.058;2022-12-15T13:20:31;37.50;;;20.43;;
23270;SDS011;11804;51.118;17.058;2022-12-15T13:31:11;34.67;;;20.03;;
23270;SDS011;11804;51.118;17.058;2022-12-15T13:44:25;38.60;;;19.40;;
23270;SDS011;11804;51.118;17.058;2022-12-15T13:46:52;34.57;;;18.57;;
23270;SDS011;11804;51.118;17.058;2022-12-15T13:49:37;33.20;;;19.33;;
23270;SDS011;11804;51.118;17.058;2022-12-15T13:52:22;36.83;;;19.57;;
23270;SDS011;11804;51.118;17.058;2022-12-15T13:54:45;37.13;;;19.60;;
23270;SDS011;11804;51.118;17.058;2022-12-15T13:57:15;34.53;;;19.10;;
23270;SDS011;11804;51.118;17.058;2022-12-15T13:59:51;32.17;;;18.57;;
23270;SDS011;11804;51.118;17.058;2022-12-15T14:02:35;36.23;;;19.43;;
23270;SDS011;11804;51.118;17.058;2022-12-15T14:07:59;83.33;;;35.10;;
23270;SDS011;11804;51.118;17.058;2022-12-15T14:10:24;43.27;;;22.80;;
23270;SDS011;11804;51.118;17.058;2022-12-15T14:13:17;42.10;;;20.97;;
23270;SDS011;11804;51.118;17.058;2022-12-15T14:15:51;40.13;;;20.67;;
23270;SDS011;11804;51.118;17.058;2022-12-15T14:18:23;37.33;;;20.60;;
23270;SDS011;11804;51.118;17.058;2022-12-15T14:20:52;36.97;;;20.53;;
23270;SDS011;11804;51.118;17.058;2022-12-15T14:23:22;37.30;;;19.90;;
23270;SDS011;11804;51.118;17.058;2022-12-15T14:26:02;38.33;;;20.17;;
23270;SDS011;11804;51.118;17.058;2022-12-15T14:28:30;37.87;;;20.33;;
23270;SDS011;11804;51.118;17.058;2022-12-15T14:30:57;86.30;;;26.77;;
23270;SDS011;11804;51.118;17.058;2022-12-15T14:33:26;40.10;;;20.77;;
23270;SDS011;11804;51.118;17.058;2022-12-15T14:35:56;40.33;;;22.50;;
23270;SDS011;11804;51.118;17.058;2022-12-15T14:38:30;46.23;;;24.27;;
23270;SDS011;11804;51.118;17.058;2022-12-15T14:40:59;44.07;;;24.67;;
23270;SDS011;11804;51.118;17.058;2022-12-15T14:43:33;42.83;;;24.00;;
23270;SDS011;11804;51.118;17.058;2022-12-15T14:48:38;49.73;;;25.73;;
23270;SDS011;11804;51.118;17.058;2022-12-15T14:51:11;51.07;;;26.33;;
23270;SDS011;11804;51.118;17.058;2022-12-15T14:53:40;52.37;;;28.63;;
23270;SDS011;11804;51.118;17.058;2022-12-15T14:56:23;58.20;;;29.33;;
23270;SDS011;11804;51.118;17.058;2022-12-15T14:58:59;59.60;;;28.67;;
23270;SDS011;11804;51.118;17.058;2022-12-15T15:01:38;59.80;;;30.73;;
23270;SDS011;11804;51.118;17.058;2022-12-15T15:04:22;63.37;;;31.50;;
23270;SDS011;11804;51.118;17.058;2022-12-15T15:06:54;63.00;;;31.13;;
23270;SDS011;11804;51.118;17.058;2022-12-15T15:09:25;56.80;;;29.97;;
23270;SDS011;11804;51.118;17.058;2022-12-15T15:12:42;63.03;;;30.37;;
23270;SDS011;11804;51.118;17.058;2022-12-15T15:18:01;60.10;;;30.13;;
23270;SDS011;11804;51.118;17.058;2022-12-15T15:20:06;58.73;;;31.30;;
23270;SDS011;11804;51.118;17.058;2022-12-15T15:26:20;62.67;;;30.90;;
23270;SDS011;11804;51.118;17.058;2022-12-15T15:28:25;70.30;;;35.97;;
23270;SDS011;11804;51.118;17.058;2022-12-15T15:30:55;58.20;;;31.57;;
23270;SDS011;11804;51.118;17.058;2022-12-15T15:33:26;71.03;;;35.57;;
23270;SDS011;11804;51.118;17.058;2022-12-15T15:35:54;65.90;;;35.90;;
23270;SDS011;11804;51.118;17.058;2022-12-15T15:38:31;71.87;;;35.30;;
23270;SDS011;11804;51.118;17.058;2022-12-15T15:41:01;149.97;;;68.10;;
23270;SDS011;11804;51.118;17.058;2022-12-15T15:43:37;124.33;;;50.63;;
23270;SDS011;11804;51.118;17.058;2022-12-15T15:46:05;105.33;;;45.70;;
23270;SDS011;11804;51.118;17.058;2022-12-15T15:48:36;83.90;;;40.13;;
23270;SDS011;11804;51.118;17.058;2022-12-15T15:51:11;89.07;;;40.73;;
23270;SDS011;11804;51.118;17.058;2022-12-15T15:53:40;119.43;;;53.80;;
23270;SDS011;11804;51.118;17.058;2022-12-15T15:56:09;86.00;;;40.93;;
23270;SDS011;11804;51.118;17.058;2022-12-15T15:58:39;129.57;;;60.27;;
23270;SDS011;11804;51.118;17.058;2022-12-15T16:01:08;89.27;;;43.43;;
23270;SDS011;11804;51.118;17.058;2022-12-15T16:03:36;95.50;;;47.03;;
23270;SDS011;11804;51.118;17.058;2022-12-15T16:06:05;71.80;;;36.77;;
23270;SDS011;11804;51.118;17.058;2022-12-15T16:08:35;66.10;;;34.47;;
23270;SDS011;11804;51.118;17.058;2022-12-15T16:11:03;68.23;;;36.43;;
23270;SDS011;11804;51.118;17.058;2022-12-15T16:13:32;79.13;;;42.27;;
23270;SDS011;11804;51.118;17.058;2022-12-15T16:15:59;62.90;;;32.10;;
23270;SDS011;11804;51.118;17.058;2022-12-15T16:18:27;62.77;;;32.67;;
23270;SDS011;11804;51.118;17.058;2022-12-15T16:20:54;66.50;;;34.43;;
23270;SDS011;11804;51.118;17.058;2022-12-15T16:23:22;66.87;;;34.63;;
23270;SDS011;11804;51.118;17.058;2022-12-15T16:25:55;90.83;;;43.50;;
23270;SDS011;11804;51.118;17.058;2022-12-15T16:28:27;68.10;;;35.60;;
23270;SDS011;11804;51.118;17.058;2022-12-15T16:30:56;72.03;;;35.23;;